sensor_id;sensor_type;location;lat;lon;timestamp;temperature;humidity
29281;DHT22;25048;49.590;11.026;2023-11-19T00:01:46;5.20;99.90
29281;DHT22;25048;49.590;11.026;2023-11-19T00:04:14;5.20;99.90
29281;DHT22;25048;49.590;11.026;2023-11-19T00:06:41;5.20;99.90
29281;DHT22;25048;49.590;11.026;2023-11-19T00:09:09;5.20;99.90
29281;DHT22;25048;49.590;11.026;2023-11-19T00:11:36;5.20;99.90
29281;DHT22;25048;49.590;11.026;2023-11-19T00:14:04;5.20;99.90
29281;DHT22;25048;49.590;11.026;2023-11-19T00:16:33;5.20;99.90
29281;DHT22;25048;49.590;11.026;2023-11-19T00:19:01;5.20;99.90
29281;DHT22;25048;49.590;11.026;2023-11-19T00:21:30;5.20;99.90
29281;DHT22;25048;49.590;11.026;2023-11-19T00:23:59;5.20;99.90
29281;DHT22;25048;49.590;11.026;2023-11-19T00:26:27;5.20;99.90
29281;DHT22;25048;49.590;11.026;2023-11-19T00:28:54;5.20;99.90
29281;DHT22;25048;49.590;11.026;2023-11-19T00:31:22;5.30;99.90
29281;DHT22;25048;49.590;11.026;2023-11-19T00:33:50;5.20;99.90
29281;DHT22;25048;49.590;11.026;2023-11-19T00:36:17;5.20;99.90
29281;DHT22;25048;49.590;11.026;2023-11-19T00:38:45;5.30;99.90
29281;DHT22;25048;49.590;11.026;2023-11-19T00:41:12;5.30;99.90
29281;DHT22;25048;49.590;11.026;2023-11-19T00:43:41;5.30;99.90
29281;DHT22;25048;49.590;11.026;2023-11-19T00:46:09;5.30;99.90
29281;DHT22;25048;49.590;11.026;2023-11-19T00:48:38;5.30;99.90
29281;DHT22;25048;49.590;11.026;2023-11-19T00:51:06;5.30;99.90
29281;DHT22;25048;49.590;11.026;2023-11-19T00:53:34;5.20;99.90
29281;DHT22;25048;49.590;11.026;2023-11-19T00:56:01;5.20;99.90
29281;DHT22;25048;49.590;11.026;2023-11-19T00:58:29;5.30;99.90
29281;DHT22;25048;49.590;11.026;2023-11-19T01:00:57;5.30;99.90
29281;DHT22;25048;49.590;11.026;2023-11-19T01:03:24;5.30;99.90
29281;DHT22;25048;49.590;11.026;2023-11-19T01:05:52;5.30;99.90
29281;DHT22;25048;49.590;11.026;2023-11-19T01:08:20;5.20;99.90
29281;DHT22;25048;49.590;11.026;2023-11-19T01:10:47;5.30;99.90
29281;DHT22;25048;49.590;11.026;2023-11-19T01:13:15;5.30;99.90
29281;DHT22;25048;49.590;11.026;2023-11-19T01:15:42;5.30;99.90
29281;DHT22;25048;49.590;11.026;2023-11-19T01:18:10;5.30;99.90
29281;DHT22;25048;49.590;11.026;2023-11-19T01:20:38;5.30;99.90
29281;DHT22;25048;49.590;11.026;2023-11-19T01:23:05;5.30;99.90
29281;DHT22;25048;49.590;11.026;2023-11-19T01:25:33;5.30;99.90
29281;DHT22;25048;49.590;11.026;2023-11-19T01:28:02;5.30;99.90
29281;DHT22;25048;49.590;11.026;2023-11-19T01:30:31;5.40;99.90
29281;DHT22;25048;49.590;11.026;2023-11-19T01:32:58;5.30;99.90
29281;DHT22;25048;49.590;11.026;2023-11-19T01:35:25;5.40;99.90
29281;DHT22;25048;49.590;11.026;2023-11-19T01:37:54;5.40;99.90
29281;DHT22;25048;49.590;11.026;2023-11-19T01:40:21;5.40;99.90
29281;DHT22;25048;49.590;11.026;2023-11-19T01:42:49;5.40;99.90
29281;DHT22;25048;49.590;11.026;2023-11-19T01:45:35;5.40;99.90
29281;DHT22;25048;49.590;11.026;2023-11-19T01:48:05;5.40;99.90
29281;DHT22;25048;49.590;11.026;2023-11-19T01:50:33;5.50;99.90
29281;DHT22;25048;49.590;11.026;2023-11-19T01:53:02;5.40;99.90
29281;DHT22;25048;49.590;11.026;2023-11-19T01:55:29;5.50;99.90
29281;DHT22;25048;49.590;11.026;2023-11-19T01:57:59;5.40;99.90
29281;DHT22;25048;49.590;11.026;2023-11-19T02:00:27;5.50;99.90
29281;DHT22;25048;49.590;11.026;2023-11-19T02:02:54;5.50;99.90
29281;DHT22;25048;49.590;11.026;2023-11-19T02:05:22;5.50;99.90
29281;DHT22;25048;49.590;11.026;2023-11-19T02:07:50;5.50;99.90
29281;DHT22;25048;49.590;11.026;2023-11-19T02:10:18;5.50;99.90
29281;DHT22;25048;49.590;11.026;2023-11-19T02:12:46;5.50;99.90
29281;DHT22;25048;49.590;11.026;2023-11-19T02:15:13;5.50;99.90
29281;DHT22;25048;49.590;11.026;2023-11-19T02:17:41;5.50;99.90
29281;DHT22;25048;49.590;11.026;2023-11-19T02:20:10;5.50;99.90
29281;DHT22;25048;49.590;11.026;2023-11-19T02:22:39;5.50;99.90
29281;DHT22;25048;49.590;11.026;2023-11-19T02:25:12;5.60;99.90
29281;DHT22;25048;49.590;11.026;2023-11-19T02:27:57;5.60;99.90
29281;DHT22;25048;49.590;11.026;2023-11-19T02:30:25;5.60;99.90
29281;DHT22;25048;49.590;11.026;2023-11-19T02:32:56;5.60;99.90
29281;DHT22;25048;49.590;11.026;2023-11-19T02:35:28;5.60;99.90
29281;DHT22;25048;49.590;11.026;2023-11-19T02:37:58;5.60;99.90
29281;DHT22;25048;49.590;11.026;2023-11-19T02:40:30;5.60;99.90
29281;DHT22;25048;49.590;11.026;2023-11-19T02:42:58;5.60;99.90
29281;DHT22;25048;49.590;11.026;2023-11-19T02:45:26;5.60;99.90
29281;DHT22;25048;49.590;11.026;2023-11-19T02:47:54;5.60;99.90
29281;DHT22;25048;49.590;11.026;2023-11-19T02:50:25;5.60;99.90
29281;DHT22;25048;49.590;11.026;2023-11-19T02:52:55;5.60;99.90
29281;DHT22;25048;49.590;11.026;2023-11-19T02:55:25;5.60;99.90
29281;DHT22;25048;49.590;11.026;2023-11-19T02:57:54;5.60;99.90
29281;DHT22;25048;49.590;11.026;2023-11-19T03:00:23;5.60;99.90
29281;DHT22;25048;49.590;11.026;2023-11-19T03:02:52;5.70;99.90
29281;DHT22;25048;49.590;11.026;2023-11-19T03:05:29;5.60;99.90
29281;DHT22;25048;49.590;11.026;2023-11-19T03:07:57;5.60;99.90
29281;DHT22;25048;49.590;11.026;2023-11-19T03:10:24;5.60;99.90
29281;DHT22;25048;49.590;11.026;2023-11-19T03:12:52;5.70;99.90
29281;DHT22;25048;49.590;11.026;2023-11-19T03:15:21;5.70;99.90
29281;DHT22;25048;49.590;11.026;2023-11-19T03:17:48;5.70;99.90
29281;DHT22;25048;49.590;11.026;2023-11-19T03:20:16;5.70;99.90
29281;DHT22;25048;49.590;11.026;2023-11-19T03:22:44;5.70;99.90
29281;DHT22;25048;49.590;11.026;2023-11-19T03:25:11;5.70;99.90
29281;DHT22;25048;49.590;11.026;2023-11-19T03:27:40;5.70;99.90
29281;DHT22;25048;49.590;11.026;2023-11-19T03:30:09;5.70;99.90
29281;DHT22;25048;49.590;11.026;2023-11-19T03:32:37;5.70;99.90
29281;DHT22;25048;49.590;11.026;2023-11-19T03:35:06;5.70;99.90
29281;DHT22;25048;49.590;11.026;2023-11-19T03:37:36;5.70;99.90
29281;DHT22;25048;49.590;11.026;2023-11-19T03:40:04;5.80;99.90
29281;DHT22;25048;49.590;11.026;2023-11-19T03:42:31;5.80;99.90
29281;DHT22;25048;49.590;11.026;2023-11-19T03:44:59;5.80;99.90
29281;DHT22;25048;49.590;11.026;2023-11-19T03:47:26;5.80;99.90
29281;DHT22;25048;49.590;11.026;2023-11-19T03:49:54;5.80;99.90
29281;DHT22;25048;49.590;11.026;2023-11-19T03:52:22;5.80;99.90
29281;DHT22;25048;49.590;11.026;2023-11-19T03:54:49;5.80;99.90
29281;DHT22;25048;49.590;11.026;2023-11-19T03:57:17;5.80;99.90
29281;DHT22;25048;49.590;11.026;2023-11-19T03:59:45;5.90;99.90
29281;DHT22;25048;49.590;11.026;2023-11-19T04:02:12;5.90;99.90
29281;DHT22;25048;49.590;11.026;2023-11-19T04:04:40;5.90;99.90
29281;DHT22;25048;49.590;11.026;2023-11-19T04:07:07;5.90;99.90
29281;DHT22;25048;49.590;11.026;2023-11-19T04:09:35;5.90;99.90
29281;DHT22;25048;49.590;11.026;2023-11-19T04:12:04;6.00;99.90
29281;DHT22;25048;49.590;11.026;2023-11-19T04:14:32;6.00;99.90
29281;DHT22;25048;49.590;11.026;2023-11-19T04:16:59;6.00;99.90
29281;DHT22;25048;49.590;11.026;2023-11-19T04:19:26;6.10;99.90
29281;DHT22;25048;49.590;11.026;2023-11-19T04:21:55;6.10;99.90
29281;DHT22;25048;49.590;11.026;2023-11-19T04:24:22;6.00;99.90
29281;DHT22;25048;49.590;11.026;2023-11-19T04:26:50;6.00;99.90
29281;DHT22;25048;49.590;11.026;2023-11-19T04:29:18;6.10;99.90
29281;DHT22;25048;49.590;11.026;2023-11-19T04:31:46;6.10;99.90
29281;DHT22;25048;49.590;11.026;2023-11-19T04:34:14;6.10;99.90
29281;DHT22;25048;49.590;11.026;2023-11-19T04:36:41;6.10;99.90
29281;DHT22;25048;49.590;11.026;2023-11-19T04:39:10;6.10;99.90
29281;DHT22;25048;49.590;11.026;2023-11-19T04:41:49;6.10;99.90
29281;DHT22;25048;49.590;11.026;2023-11-19T04:44:18;6.10;99.90
29281;DHT22;25048;49.590;11.026;2023-11-19T04:46:46;6.10;99.90
29281;DHT22;25048;49.590;11.026;2023-11-19T04:49:14;6.10;99.90
29281;DHT22;25048;49.590;11.026;2023-11-19T04:51:46;6.10;99.90
29281;DHT22;25048;49.590;11.026;2023-11-19T04:54:13;6.20;99.90
29281;DHT22;25048;49.590;11.026;2023-11-19T04:56:44;6.20;99.90
29281;DHT22;25048;49.590;11.026;2023-11-19T04:59:10;6.20;99.90
29281;DHT22;25048;49.590;11.026;2023-11-19T05:01:37;6.20;99.90
29281;DHT22;25048;49.590;11.026;2023-11-19T05:04:05;6.30;99.90
29281;DHT22;25048;49.590;11.026;2023-11-19T05:06:33;6.30;99.90
29281;DHT22;25048;49.590;11.026;2023-11-19T05:09:01;6.30;99.90
29281;DHT22;25048;49.590;11.026;2023-11-19T05:11:31;6.20;99.90
29281;DHT22;25048;49.590;11.026;2023-11-19T05:13:58;6.30;99.90
29281;DHT22;25048;49.590;11.026;2023-11-19T05:16:26;6.30;99.90
29281;DHT22;25048;49.590;11.026;2023-11-19T05:18:53;6.30;99.90
29281;DHT22;25048;49.590;11.026;2023-11-19T05:21:21;6.30;99.90
29281;DHT22;25048;49.590;11.026;2023-11-19T05:23:48;6.30;99.90
29281;DHT22;25048;49.590;11.026;2023-11-19T05:26:21;6.30;99.90
29281;DHT22;25048;49.590;11.026;2023-11-19T05:28:49;6.40;99.90
29281;DHT22;25048;49.590;11.026;2023-11-19T05:31:17;6.40;99.90
29281;DHT22;25048;49.590;11.026;2023-11-19T05:33:45;6.40;99.90
29281;DHT22;25048;49.590;11.026;2023-11-19T05:36:13;6.40;99.90
29281;DHT22;25048;49.590;11.026;2023-11-19T05:38:40;6.40;99.90
29281;DHT22;25048;49.590;11.026;2023-11-19T05:41:08;6.50;99.90
29281;DHT22;25048;49.590;11.026;2023-11-19T05:43:35;6.50;99.90
29281;DHT22;25048;49.590;11.026;2023-11-19T05:46:04;6.50;99.90
29281;DHT22;25048;49.590;11.026;2023-11-19T05:48:31;6.60;99.90
29281;DHT22;25048;49.590;11.026;2023-11-19T05:50:59;6.60;99.90
29281;DHT22;25048;49.590;11.026;2023-11-19T05:53:27;6.70;99.90
29281;DHT22;25048;49.590;11.026;2023-11-19T05:55:54;6.70;99.90
29281;DHT22;25048;49.590;11.026;2023-11-19T05:58:25;6.70;99.90
29281;DHT22;25048;49.590;11.026;2023-11-19T06:01:00;6.80;99.90
29281;DHT22;25048;49.590;11.026;2023-11-19T06:03:24;6.80;99.90
29281;DHT22;25048;49.590;11.026;2023-11-19T06:05:52;6.90;99.90
29281;DHT22;25048;49.590;11.026;2023-11-19T06:08:20;6.90;99.90
29281;DHT22;25048;49.590;11.026;2023-11-19T06:10:48;6.90;99.90
29281;DHT22;25048;49.590;11.026;2023-11-19T06:13:17;6.90;99.90
29281;DHT22;25048;49.590;11.026;2023-11-19T06:15:45;6.90;99.90
29281;DHT22;25048;49.590;11.026;2023-11-19T06:18:13;7.00;99.90
29281;DHT22;25048;49.590;11.026;2023-11-19T06:20:41;7.00;99.90
29281;DHT22;25048;49.590;11.026;2023-11-19T06:23:08;7.00;99.90
29281;DHT22;25048;49.590;11.026;2023-11-19T06:25:36;7.00;99.90
29281;DHT22;25048;49.590;11.026;2023-11-19T06:28:03;7.10;99.90
29281;DHT22;25048;49.590;11.026;2023-11-19T06:30:31;7.10;99.90
29281;DHT22;25048;49.590;11.026;2023-11-19T06:32:59;7.20;99.90
29281;DHT22;25048;49.590;11.026;2023-11-19T06:35:26;7.20;99.90
29281;DHT22;25048;49.590;11.026;2023-11-19T06:37:55;7.20;99.90
29281;DHT22;25048;49.590;11.026;2023-11-19T06:40:23;7.20;99.90
29281;DHT22;25048;49.590;11.026;2023-11-19T06:42:51;7.20;99.90
29281;DHT22;25048;49.590;11.026;2023-11-19T06:45:19;7.20;99.90
29281;DHT22;25048;49.590;11.026;2023-11-19T06:47:46;7.30;99.90
29281;DHT22;25048;49.590;11.026;2023-11-19T06:50:14;7.30;99.90
29281;DHT22;25048;49.590;11.026;2023-11-19T06:52:42;7.40;99.90
29281;DHT22;25048;49.590;11.026;2023-11-19T06:55:09;7.40;99.90
29281;DHT22;25048;49.590;11.026;2023-11-19T06:57:37;7.40;99.90
29281;DHT22;25048;49.590;11.026;2023-11-19T07:00:06;7.40;99.90
29281;DHT22;25048;49.590;11.026;2023-11-19T07:02:34;7.40;99.90
29281;DHT22;25048;49.590;11.026;2023-11-19T07:05:02;7.50;99.90
29281;DHT22;25048;49.590;11.026;2023-11-19T07:07:31;7.50;99.90
29281;DHT22;25048;49.590;11.026;2023-11-19T07:10:02;7.50;99.90
29281;DHT22;25048;49.590;11.026;2023-11-19T07:12:31;7.50;99.90
29281;DHT22;25048;49.590;11.026;2023-11-19T07:14:58;7.60;99.90
29281;DHT22;25048;49.590;11.026;2023-11-19T07:17:26;7.70;99.90
29281;DHT22;25048;49.590;11.026;2023-11-19T07:19:54;7.70;99.90
29281;DHT22;25048;49.590;11.026;2023-11-19T07:22:21;7.70;99.90
29281;DHT22;25048;49.590;11.026;2023-11-19T07:24:49;7.70;99.90
29281;DHT22;25048;49.590;11.026;2023-11-19T07:27:17;7.70;99.90
29281;DHT22;25048;49.590;11.026;2023-11-19T07:29:45;7.80;99.90
29281;DHT22;25048;49.590;11.026;2023-11-19T07:32:12;7.90;99.90
29281;DHT22;25048;49.590;11.026;2023-11-19T07:34:40;8.00;99.90
29281;DHT22;25048;49.590;11.026;2023-11-19T07:37:07;8.00;99.90
29281;DHT22;25048;49.590;11.026;2023-11-19T07:39:35;8.00;99.90
29281;DHT22;25048;49.590;11.026;2023-11-19T07:42:04;8.10;99.90
29281;DHT22;25048;49.590;11.026;2023-11-19T07:44:32;8.10;99.90
29281;DHT22;25048;49.590;11.026;2023-11-19T07:47:00;8.20;99.90
29281;DHT22;25048;49.590;11.026;2023-11-19T07:49:27;8.30;99.90
29281;DHT22;25048;49.590;11.026;2023-11-19T07:51:55;8.30;99.90
29281;DHT22;25048;49.590;11.026;2023-11-19T07:54:24;8.30;99.90
29281;DHT22;25048;49.590;11.026;2023-11-19T07:56:51;8.30;99.90
29281;DHT22;25048;49.590;11.026;2023-11-19T07:59:19;8.30;99.90
29281;DHT22;25048;49.590;11.026;2023-11-19T08:01:46;8.30;99.90
29281;DHT22;25048;49.590;11.026;2023-11-19T08:04:14;8.30;99.90
29281;DHT22;25048;49.590;11.026;2023-11-19T08:06:42;8.30;99.90
29281;DHT22;25048;49.590;11.026;2023-11-19T08:09:09;8.30;99.90
29281;DHT22;25048;49.590;11.026;2023-11-19T08:11:40;8.40;99.90
29281;DHT22;25048;49.590;11.026;2023-11-19T08:14:09;8.30;99.90
29281;DHT22;25048;49.590;11.026;2023-11-19T08:16:36;8.40;99.90
29281;DHT22;25048;49.590;11.026;2023-11-19T08:19:23;8.40;99.90
29281;DHT22;25048;49.590;11.026;2023-11-19T08:21:51;8.40;99.90
29281;DHT22;25048;49.590;11.026;2023-11-19T08:24:18;8.50;99.90
29281;DHT22;25048;49.590;11.026;2023-11-19T08:26:46;8.40;99.90
29281;DHT22;25048;49.590;11.026;2023-11-19T08:29:13;8.40;99.90
29281;DHT22;25048;49.590;11.026;2023-11-19T08:31:41;8.50;99.90
29281;DHT22;25048;49.590;11.026;2023-11-19T08:34:09;8.50;99.90
29281;DHT22;25048;49.590;11.026;2023-11-19T08:36:37;8.50;99.90
29281;DHT22;25048;49.590;11.026;2023-11-19T08:39:05;8.50;99.90
29281;DHT22;25048;49.590;11.026;2023-11-19T08:41:34;8.60;99.90
29281;DHT22;25048;49.590;11.026;2023-11-19T08:44:02;8.70;99.90
29281;DHT22;25048;49.590;11.026;2023-11-19T08:46:29;8.70;99.90
29281;DHT22;25048;49.590;11.026;2023-11-19T08:48:57;8.50;99.90
29281;DHT22;25048;49.590;11.026;2023-11-19T08:51:25;9.10;99.90
29281;DHT22;25048;49.590;11.026;2023-11-19T08:53:59;9.50;99.90
29281;DHT22;25048;49.590;11.026;2023-11-19T08:56:30;9.70;99.90
29281;DHT22;25048;49.590;11.026;2023-11-19T08:58:59;9.80;99.90
29281;DHT22;25048;49.590;11.026;2023-11-19T09:01:26;10.00;99.90
29281;DHT22;25048;49.590;11.026;2023-11-19T09:03:55;10.20;99.90
29281;DHT22;25048;49.590;11.026;2023-11-19T09:06:22;10.30;99.90
29281;DHT22;25048;49.590;11.026;2023-11-19T09:08:50;10.40;99.90
29281;DHT22;25048;49.590;11.026;2023-11-19T09:11:17;10.50;99.90
29281;DHT22;25048;49.590;11.026;2023-11-19T09:13:45;10.60;99.90
29281;DHT22;25048;49.590;11.026;2023-11-19T09:16:25;10.60;99.90
29281;DHT22;25048;49.590;11.026;2023-11-19T09:18:58;10.70;99.90
29281;DHT22;25048;49.590;11.026;2023-11-19T09:21:26;10.70;99.90
29281;DHT22;25048;49.590;11.026;2023-11-19T09:23:53;10.80;99.90
29281;DHT22;25048;49.590;11.026;2023-11-19T09:26:21;10.90;99.90
29281;DHT22;25048;49.590;11.026;2023-11-19T09:28:48;11.00;99.90
29281;DHT22;25048;49.590;11.026;2023-11-19T09:31:17;11.20;99.90
29281;DHT22;25048;49.590;11.026;2023-11-19T09:33:50;11.30;99.90
29281;DHT22;25048;49.590;11.026;2023-11-19T09:36:38;11.30;99.90
29281;DHT22;25048;49.590;11.026;2023-11-19T09:42:45;11.40;99.90
29281;DHT22;25048;49.590;11.026;2023-11-19T09:48:25;11.50;99.90
29281;DHT22;25048;49.590;11.026;2023-11-19T09:50:53;11.70;99.90
29281;DHT22;25048;49.590;11.026;2023-11-19T09:53:21;11.70;99.90
29281;DHT22;25048;49.590;11.026;2023-11-19T09:55:49;11.90;99.90
29281;DHT22;25048;49.590;11.026;2023-11-19T09:58:17;12.00;99.90
29281;DHT22;25048;49.590;11.026;2023-11-19T10:00:45;12.00;99.90
29281;DHT22;25048;49.590;11.026;2023-11-19T10:03:13;12.10;99.90
29281;DHT22;25048;49.590;11.026;2023-11-19T10:05:41;12.10;99.90
29281;DHT22;25048;49.590;11.026;2023-11-19T10:08:08;12.20;99.90
29281;DHT22;25048;49.590;11.026;2023-11-19T10:10:38;12.30;99.90
29281;DHT22;25048;49.590;11.026;2023-11-19T10:13:05;12.30;99.90
29281;DHT22;25048;49.590;11.026;2023-11-19T10:15:37;12.30;99.90
29281;DHT22;25048;49.590;11.026;2023-11-19T10:18:05;12.40;99.90
29281;DHT22;25048;49.590;11.026;2023-11-19T10:20:40;12.40;99.90
29281;DHT22;25048;49.590;11.026;2023-11-19T10:23:08;12.50;99.90
29281;DHT22;25048;49.590;11.026;2023-11-19T10:25:36;12.60;99.90
29281;DHT22;25048;49.590;11.026;2023-11-19T10:28:04;12.60;99.90
29281;DHT22;25048;49.590;11.026;2023-11-19T10:30:33;12.60;99.90
29281;DHT22;25048;49.590;11.026;2023-11-19T10:33:11;12.50;99.90
29281;DHT22;25048;49.590;11.026;2023-11-19T10:35:57;12.50;99.90
29281;DHT22;25048;49.590;11.026;2023-11-19T10:38:25;12.50;99.90
29281;DHT22;25048;49.590;11.026;2023-11-19T10:40:53;12.40;99.90
29281;DHT22;25048;49.590;11.026;2023-11-19T10:43:24;12.40;99.90
29281;DHT22;25048;49.590;11.026;2023-11-19T10:45:52;12.40;99.90
29281;DHT22;25048;49.590;11.026;2023-11-19T10:48:20;12.30;99.90
29281;DHT22;25048;49.590;11.026;2023-11-19T10:50:53;12.40;99.90
29281;DHT22;25048;49.590;11.026;2023-11-19T10:53:20;12.40;99.90
29281;DHT22;25048;49.590;11.026;2023-11-19T10:55:48;12.50;99.90
29281;DHT22;25048;49.590;11.026;2023-11-19T10:58:16;12.40;99.90
29281;DHT22;25048;49.590;11.026;2023-11-19T11:00:51;12.40;99.90
29281;DHT22;25048;49.590;11.026;2023-11-19T11:03:19;12.40;99.90
29281;DHT22;25048;49.590;11.026;2023-11-19T11:05:48;12.30;99.90
29281;DHT22;25048;49.590;11.026;2023-11-19T11:08:17;12.30;99.90
29281;DHT22;25048;49.590;11.026;2023-11-19T11:10:57;12.40;99.90
29281;DHT22;25048;49.590;11.026;2023-11-19T11:13:23;12.40;99.90
29281;DHT22;25048;49.590;11.026;2023-11-19T11:15:51;12.60;99.90
29281;DHT22;25048;49.590;11.026;2023-11-19T11:18:21;12.80;99.90
29281;DHT22;25048;49.590;11.026;2023-11-19T11:20:51;13.10;99.90
29281;DHT22;25048;49.590;11.026;2023-11-19T11:37:10;13.40;99.90
29281;DHT22;25048;49.590;11.026;2023-11-19T11:39:40;13.40;99.90
29281;DHT22;25048;49.590;11.026;2023-11-19T11:45:01;13.30;99.90
29281;DHT22;25048;49.590;11.026;2023-11-19T11:50:17;13.20;99.90
29281;DHT22;25048;49.590;11.026;2023-11-19T11:55:36;13.20;99.90
29281;DHT22;25048;49.590;11.026;2023-11-19T11:58:05;13.20;99.90
29281;DHT22;25048;49.590;11.026;2023-11-19T12:00:37;13.20;99.90
29281;DHT22;25048;49.590;11.026;2023-11-19T12:03:07;13.20;99.90
29281;DHT22;25048;49.590;11.026;2023-11-19T12:05:45;13.10;99.90
29281;DHT22;25048;49.590;11.026;2023-11-19T12:08:14;13.10;99.90
29281;DHT22;25048;49.590;11.026;2023-11-19T12:10:50;13.10;99.90
29281;DHT22;25048;49.590;11.026;2023-11-19T12:13:22;13.10;99.90
29281;DHT22;25048;49.590;11.026;2023-11-19T12:18:28;13.00;99.90
29281;DHT22;25048;49.590;11.026;2023-11-19T12:20:59;13.00;99.90
29281;DHT22;25048;49.590;11.026;2023-11-19T12:23:30;12.90;99.90
29281;DHT22;25048;49.590;11.026;2023-11-19T12:25:58;12.80;99.90
29281;DHT22;25048;49.590;11.026;2023-11-19T12:28:25;12.80;99.90
29281;DHT22;25048;49.590;11.026;2023-11-19T12:30:54;12.70;99.90
29281;DHT22;25048;49.590;11.026;2023-11-19T12:33:21;12.60;99.90
29281;DHT22;25048;49.590;11.026;2023-11-19T12:35:49;12.60;99.90
29281;DHT22;25048;49.590;11.026;2023-11-19T12:38:26;12.40;99.90
29281;DHT22;25048;49.590;11.026;2023-11-19T12:41:03;12.20;99.90
29281;DHT22;25048;49.590;11.026;2023-11-19T12:43:31;12.10;99.90
29281;DHT22;25048;49.590;11.026;2023-11-19T12:46:00;12.00;99.90
29281;DHT22;25048;49.590;11.026;2023-11-19T12:48:28;11.90;99.90
29281;DHT22;25048;49.590;11.026;2023-11-19T12:50:59;11.90;99.90
29281;DHT22;25048;49.590;11.026;2023-11-19T12:53:28;11.90;99.90
29281;DHT22;25048;49.590;11.026;2023-11-19T12:55:55;11.80;99.90
29281;DHT22;25048;49.590;11.026;2023-11-19T12:58:33;11.80;99.90
29281;DHT22;25048;49.590;11.026;2023-11-19T13:01:07;11.70;99.90
29281;DHT22;25048;49.590;11.026;2023-11-19T13:03:36;11.80;99.90
29281;DHT22;25048;49.590;11.026;2023-11-19T13:06:09;11.90;99.90
29281;DHT22;25048;49.590;11.026;2023-11-19T13:08:44;12.00;99.90
29281;DHT22;25048;49.590;11.026;2023-11-19T13:11:11;12.20;99.90
29281;DHT22;25048;49.590;11.026;2023-11-19T13:14:01;12.30;99.90
29281;DHT22;25048;49.590;11.026;2023-11-19T13:16:33;12.40;99.90
29281;DHT22;25048;49.590;11.026;2023-11-19T13:19:01;12.50;99.90
29281;DHT22;25048;49.590;11.026;2023-11-19T13:21:29;12.60;99.90
29281;DHT22;25048;49.590;11.026;2023-11-19T13:23:59;12.70;99.90
29281;DHT22;25048;49.590;11.026;2023-11-19T13:26:26;12.80;99.90
29281;DHT22;25048;49.590;11.026;2023-11-19T13:28:54;12.90;99.90
29281;DHT22;25048;49.590;11.026;2023-11-19T13:31:21;12.90;99.90
29281;DHT22;25048;49.590;11.026;2023-11-19T13:33:49;12.80;99.90
29281;DHT22;25048;49.590;11.026;2023-11-19T13:36:16;12.80;99.90
29281;DHT22;25048;49.590;11.026;2023-11-19T13:38:44;12.80;99.90
29281;DHT22;25048;49.590;11.026;2023-11-19T13:41:12;12.70;99.90
29281;DHT22;25048;49.590;11.026;2023-11-19T13:43:40;12.60;99.90
29281;DHT22;25048;49.590;11.026;2023-11-19T13:46:08;12.60;99.90
29281;DHT22;25048;49.590;11.026;2023-11-19T13:48:38;12.60;99.90
29281;DHT22;25048;49.590;11.026;2023-11-19T13:51:06;12.60;99.90
29281;DHT22;25048;49.590;11.026;2023-11-19T13:53:33;12.50;99.90
29281;DHT22;25048;49.590;11.026;2023-11-19T13:56:01;12.30;99.90
29281;DHT22;25048;49.590;11.026;2023-11-19T13:58:29;12.10;99.90
29281;DHT22;25048;49.590;11.026;2023-11-19T14:00:56;11.90;99.90
29281;DHT22;25048;49.590;11.026;2023-11-19T14:03:24;11.70;99.90
29281;DHT22;25048;49.590;11.026;2023-11-19T14:05:51;11.60;99.90
29281;DHT22;25048;49.590;11.026;2023-11-19T14:08:21;11.60;99.90
29281;DHT22;25048;49.590;11.026;2023-11-19T14:10:48;11.70;99.90
29281;DHT22;25048;49.590;11.026;2023-11-19T14:13:16;11.70;99.90
29281;DHT22;25048;49.590;11.026;2023-11-19T14:15:43;11.70;99.90
29281;DHT22;25048;49.590;11.026;2023-11-19T14:18:11;11.70;99.90
29281;DHT22;25048;49.590;11.026;2023-11-19T14:20:38;11.80;99.90
29281;DHT22;25048;49.590;11.026;2023-11-19T14:23:06;11.90;99.90
29281;DHT22;25048;49.590;11.026;2023-11-19T14:25:38;12.10;99.90
29281;DHT22;25048;49.590;11.026;2023-11-19T14:28:05;12.30;99.90
29281;DHT22;25048;49.590;11.026;2023-11-19T14:30:34;12.30;99.90
29281;DHT22;25048;49.590;11.026;2023-11-19T14:33:02;12.30;99.90
29281;DHT22;25048;49.590;11.026;2023-11-19T14:35:29;12.20;99.90
29281;DHT22;25048;49.590;11.026;2023-11-19T14:37:58;12.20;99.90
29281;DHT22;25048;49.590;11.026;2023-11-19T14:40:26;12.10;99.90
29281;DHT22;25048;49.590;11.026;2023-11-19T14:42:53;12.00;99.90
29281;DHT22;25048;49.590;11.026;2023-11-19T14:45:21;11.80;99.90
29281;DHT22;25048;49.590;11.026;2023-11-19T14:47:49;11.90;99.90
29281;DHT22;25048;49.590;11.026;2023-11-19T14:50:16;11.80;99.90
29281;DHT22;25048;49.590;11.026;2023-11-19T14:52:44;11.80;99.90
29281;DHT22;25048;49.590;11.026;2023-11-19T14:55:11;11.80;99.90
29281;DHT22;25048;49.590;11.026;2023-11-19T14:57:39;11.80;99.90
29281;DHT22;25048;49.590;11.026;2023-11-19T15:00:08;11.70;99.90
29281;DHT22;25048;49.590;11.026;2023-11-19T15:02:37;11.70;99.90
29281;DHT22;25048;49.590;11.026;2023-11-19T15:05:05;11.70;99.90
29281;DHT22;25048;49.590;11.026;2023-11-19T15:07:33;11.60;99.90
29281;DHT22;25048;49.590;11.026;2023-11-19T15:10:02;11.50;99.90
29281;DHT22;25048;49.590;11.026;2023-11-19T15:12:30;11.50;99.90
29281;DHT22;25048;49.590;11.026;2023-11-19T15:14:57;11.40;99.90
29281;DHT22;25048;49.590;11.026;2023-11-19T15:17:25;11.30;99.90
29281;DHT22;25048;49.590;11.026;2023-11-19T15:19:52;11.20;99.90
29281;DHT22;25048;49.590;11.026;2023-11-19T15:22:20;11.20;99.90
29281;DHT22;25048;49.590;11.026;2023-11-19T15:24:47;11.10;99.90
29281;DHT22;25048;49.590;11.026;2023-11-19T15:27:15;11.10;99.90
29281;DHT22;25048;49.590;11.026;2023-11-19T15:29:43;11.10;99.90
29281;DHT22;25048;49.590;11.026;2023-11-19T15:32:10;11.00;99.90
29281;DHT22;25048;49.590;11.026;2023-11-19T15:34:38;10.90;99.90
29281;DHT22;25048;49.590;11.026;2023-11-19T15:37:08;10.90;99.90
29281;DHT22;25048;49.590;11.026;2023-11-19T15:39:35;10.90;99.90
29281;DHT22;25048;49.590;11.026;2023-11-19T15:42:03;10.80;99.90
29281;DHT22;25048;49.590;11.026;2023-11-19T15:44:31;10.80;99.90
29281;DHT22;25048;49.590;11.026;2023-11-19T15:46:58;10.70;99.90
29281;DHT22;25048;49.590;11.026;2023-11-19T15:49:26;10.70;99.90
29281;DHT22;25048;49.590;11.026;2023-11-19T15:51:54;10.70;99.90
29281;DHT22;25048;49.590;11.026;2023-11-19T15:54:21;10.70;99.90
29281;DHT22;25048;49.590;11.026;2023-11-19T15:56:50;10.70;99.90
29281;DHT22;25048;49.590;11.026;2023-11-19T15:59:18;10.70;99.90
29281;DHT22;25048;49.590;11.026;2023-11-19T16:01:48;10.80;99.90
29281;DHT22;25048;49.590;11.026;2023-11-19T16:04:16;10.70;99.90
29281;DHT22;25048;49.590;11.026;2023-11-19T16:06:44;10.70;99.90